Time;durP1;ratioP1;P1;durP2;ratioP2;P2;SDS_P1;SDS_P2;PMS_P1;PMS_P2;Temp;Humidity;BMP_temperature;BMP_pressure;BME280_temperature;BME280_humidity;BME280_pressure;Samples;Min_cycle;Max_cycle;Signal;HPM_P1;HPM_P2
2021/10/01 00:00:41;;;;;;;1.95;1.30;;;;;;;5.96;97.34;99567.72;5013676;28;20081;-67
2021/10/01 00:03:06;;;;;;;3.15;1.50;;;;;;;6.09;97.24;99578.91;5012622;28;20145;-67
2021/10/01 00:05:32;;;;;;;5.13;1.65;;;;;;;6.11;97.44;99575.06;5013017;28;20052;-67
2021/10/01 00:07:57;;;;;;;1.70;1.20;;;;;;;6.23;97.48;99582.88;5013077;28;20030;-67
2021/10/01 00:10:22;;;;;;;2.00;1.13;;;;;;;6.12;96.24;99581.28;5023167;28;20041;-67
2021/10/01 00:12:48;;;;;;;5.57;1.45;;;;;;;6.18;95.86;99574.44;5025870;28;20108;-67
2021/10/01 00:15:13;;;;;;;3.50;1.40;;;;;;;6.17;96.30;99581.66;5024029;28;20041;-67
2021/10/01 00:17:38;;;;;;;3.80;1.58;;;;;;;6.11;95.74;99574.22;5011786;28;20506;-67
2021/10/01 00:20:05;;;;;;;3.65;1.50;;;;;;;6.03;95.66;99569.63;5012488;28;20029;-67
2021/10/01 00:22:30;;;;;;;3.10;1.50;;;;;;;5.83;96.05;99534.00;5013269;28;20480;-67
2021/10/01 00:24:55;;;;;;;1.45;1.00;;;;;;;5.97;95.61;99561.34;5031943;28;20022;-67
2021/10/01 00:27:21;;;;;;;6.18;1.55;;;;;;;5.83;96.21;99551.97;5014768;28;20072;-67
2021/10/01 00:29:46;;;;;;;3.50;1.13;;;;;;;5.95;96.11;99552.59;5012580;28;20491;-67
2021/10/01 00:32:12;;;;;;;4.22;1.60;;;;;;;5.77;95.46;99529.25;5013031;28;20026;-67
2021/10/01 00:34:37;;;;;;;2.22;1.48;;;;;;;6.01;94.47;99541.25;5017254;28;20034;-67
2021/10/01 00:37:03;;;;;;;2.22;1.63;;;;;;;5.89;94.75;99535.22;5013794;28;20033;-67
2021/10/01 00:39:28;;;;;;;2.30;1.50;;;;;;;5.92;94.73;99549.22;5011822;28;20045;-67
2021/10/01 00:41:54;;;;;;;4.35;1.45;;;;;;;5.93;95.41;99536.63;5013141;28;20389;-67
2021/10/01 00:44:19;;;;;;;2.33;1.30;;;;;;;5.78;94.52;99528.25;5012753;28;20036;-67
2021/10/01 00:46:45;;;;;;;3.38;1.30;;;;;;;5.85;94.50;99534.69;5005540;28;20036;-67
2021/10/01 00:49:10;;;;;;;5.20;1.70;;;;;;;5.84;95.37;99535.72;5012790;28;20022;-66
2021/10/01 00:51:38;;;;;;;2.92;1.48;;;;;;;5.63;95.17;99517.25;5011561;28;20045;-67
2021/10/01 00:54:03;;;;;;;2.75;1.50;;;;;;;5.77;95.40;99536.47;5029977;28;20387;-67
2021/10/01 00:56:29;;;;;;;1.73;1.42;;;;;;;5.65;95.66;99511.69;5017456;28;20075;-67
2021/10/01 00:58:54;;;;;;;1.95;1.40;;;;;;;5.79;95.97;99521.03;5023873;28;20087;-67
2021/10/01 01:01:19;;;;;;;1.42;1.17;;;;;;;5.85;96.29;99526.66;5016240;28;20076;-67
2021/10/01 01:04:08;;;;;;;5.68;1.65;;;;;;;5.76;95.85;99519.50;5021338;28;20029;-67
2021/10/01 01:06:45;;;;;;;5.72;1.27;;;;;;;5.83;96.15;99506.31;5003067;28;20026;-67
2021/10/01 01:09:29;;;;;;;4.55;1.42;;;;;;;5.82;95.79;99516.22;5011057;28;20116;-67
2021/10/01 01:12:09;;;;;;;2.97;1.38;;;;;;;5.88;95.95;99506.69;5010017;28;20037;-67
2021/10/01 01:14:47;;;;;;;6.20;1.33;;;;;;;5.92;94.60;99508.91;5013331;28;20025;-67
2021/10/01 01:17:19;;;;;;;2.00;1.10;;;;;;;5.89;94.38;99511.06;5009190;28;20026;-66
2021/10/01 01:20:04;;;;;;;2.13;1.38;;;;;;;5.81;94.25;99503.78;5012202;28;20479;-67
2021/10/01 01:22:47;;;;;;;3.75;1.10;;;;;;;5.76;94.95;99497.19;5012148;28;20018;-67
2021/10/01 01:25:50;;;;;;;2.47;1.38;;;;;;;5.88;95.86;99498.63;5021744;28;20030;-67
2021/10/01 01:28:30;;;;;;;3.00;1.45;;;;;;;5.89;94.78;99493.13;5008392;28;20029;-68
2021/10/01 01:31:01;;;;;;;3.00;1.35;;;;;;;5.82;95.32;99500.09;5010347;28;20033;-67
2021/10/01 01:33:28;;;;;;;4.13;1.30;;;;;;;5.79;96.28;99499.56;5023588;28;20680;-68
2021/10/01 01:35:57;;;;;;;1.80;1.15;;;;;;;5.59;95.82;99466.69;5010252;28;20036;-68
2021/10/01 01:38:28;;;;;;;;;;;;;;;5.88;95.90;99494.09;5007823;28;20030;-68
2021/10/01 01:40:57;;;;;;;6.32;1.15;;;;;;;5.85;95.44;99493.59;5012228;28;20352;-68
2021/10/01 01:43:24;;;;;;;3.70;1.17;;;;;;;5.99;95.05;99497.56;5010444;28;20022;-68
2021/10/01 01:45:50;;;;;;;2.00;1.10;;;;;;;5.87;93.65;99476.31;5011515;28;20053;-68
2021/10/01 01:48:17;;;;;;;1.33;0.80;;;;;;;6.02;93.34;99489.19;5026788;28;20029;-68
2021/10/01 01:50:43;;;;;;;2.08;0.90;;;;;;;6.04;93.37;99482.66;5018163;28;20023;-68
2021/10/01 01:53:10;;;;;;;2.65;1.10;;;;;;;5.93;92.58;99470.34;5001537;28;20464;-68
2021/10/01 01:55:37;;;;;;;2.95;1.20;;;;;;;6.02;92.65;99473.91;5011040;28;20033;-68
2021/10/01 01:58:03;;;;;;;3.55;1.10;;;;;;;5.99;93.23;99468.88;5036546;22;20049;-66
2021/10/01 02:00:28;;;;;;;1.73;0.93;;;;;;;6.02;93.16;99462.34;5013288;28;20094;-66
2021/10/01 02:02:57;;;;;;;2.92;0.70;;;;;;;6.01;92.52;99469.56;5013696;28;20030;-66
2021/10/01 02:05:24;;;;;;;2.22;1.05;;;;;;;5.87;92.01;99459.38;5013215;28;20025;-66
2021/10/01 02:07:53;;;;;;;1.58;0.82;;;;;;;5.90;91.73;99465.25;5011771;28;20049;-66
2021/10/01 02:10:20;;;;;;;4.23;1.20;;;;;;;5.86;92.47;99463.03;5007834;28;20090;-66
2021/10/01 02:12:49;;;;;;;2.28;1.10;;;;;;;5.85;93.39;99461.38;4997160;28;20026;-66
2021/10/01 02:15:16;;;;;;;3.30;1.15;;;;;;;5.83;93.71;99458.81;4994914;28;20025;-66
2021/10/01 02:17:44;;;;;;;2.17;0.95;;;;;;;5.82;93.56;99450.94;4993252;28;20034;-66
2021/10/01 02:20:10;;;;;;;1.77;1.10;;;;;;;5.90;93.90;99451.00;4994544;28;20037;-66
2021/10/01 02:22:36;;;;;;;2.45;1.08;;;;;;;5.83;94.21;99447.25;4998231;28;20030;-66
2021/10/01 02:25:03;;;;;;;2.60;1.20;;;;;;;5.83;93.81;99444.56;4997689;28;20026;-66
2021/10/01 02:27:40;;;;;;;5.55;1.38;;;;;;;5.83;94.17;99442.72;4999787;28;20034;-66
2021/10/01 02:30:11;;;;;;;5.32;1.30;;;;;;;5.79;93.91;99435.97;5011757;28;20405;-66
2021/10/01 02:32:42;;;;;;;2.60;1.35;;;;;;;5.77;94.35;99435.28;4999139;28;20037;-66
2021/10/01 02:35:08;;;;;;;3.28;1.58;;;;;;;5.73;93.90;99436.59;5000277;28;20030;-66
2021/10/01 02:37:34;;;;;;;2.45;1.25;;;;;;;5.76;93.91;99432.75;5003905;28;20054;-66
2021/10/01 02:40:01;;;;;;;1.92;1.30;;;;;;;5.74;93.84;99424.00;4977832;28;20031;-66
2021/10/01 02:42:27;;;;;;;3.83;1.33;;;;;;;5.71;92.76;99426.03;4981045;28;20029;-66
2021/10/01 02:44:55;;;;;;;1.98;0.93;;;;;;;5.67;93.58;99419.28;4996760;28;20476;-66
2021/10/01 02:47:25;;;;;;;4.03;1.13;;;;;;;5.53;93.21;99409.13;4998595;28;20030;-66
2021/10/01 02:49:51;;;;;;;2.72;1.38;;;;;;;5.46;92.45;99414.25;4997672;28;20030;-66
2021/10/01 02:52:44;;;;;;;3.85;1.40;;;;;;;5.38;93.10;99414.19;4999113;28;20023;-66
2021/10/01 02:55:17;;;;;;;2.53;1.40;;;;;;;5.37;93.86;99414.34;5000921;28;20110;-66
2021/10/01 02:57:50;;;;;;;2.65;1.42;;;;;;;5.34;94.94;99412.78;4997019;28;20030;-66
2021/10/01 03:00:15;;;;;;;3.13;1.23;;;;;;;5.42;94.88;99414.72;4996708;28;20033;-66
2021/10/01 03:02:43;;;;;;;3.75;1.33;;;;;;;5.36;95.58;99405.44;5011621;28;20022;-66
2021/10/01 03:05:11;;;;;;;4.30;1.77;;;;;;;5.35;95.79;99408.31;5014092;28;20027;-66
2021/10/01 03:07:40;;;;;;;1.25;0.95;;;;;;;5.30;95.79;99406.06;5016999;28;20076;-66
2021/10/01 03:10:07;;;;;;;2.95;1.60;;;;;;;5.25;96.13;99400.31;5007407;28;20031;-66
2021/10/01 03:12:34;;;;;;;3.92;1.27;;;;;;;5.34;95.78;99407.44;5011259;28;20074;-67
2021/10/01 03:15:02;;;;;;;2.28;1.35;;;;;;;5.40;95.40;99408.69;5016611;28;20026;-66
2021/10/01 03:17:27;;;;;;;4.55;1.50;;;;;;;5.31;95.29;99401.53;5004675;28;20081;-66
2021/10/01 03:19:53;;;;;;;3.88;1.42;;;;;;;5.19;95.30;99395.59;4998843;28;20431;-66
2021/10/01 03:22:19;;;;;;;7.85;1.48;;;;;;;5.22;94.58;99390.75;4998957;28;20022;-66
2021/10/01 03:24:46;;;;;;;2.58;1.42;;;;;;;5.12;95.31;99386.47;4998596;28;20037;-66
2021/10/01 03:27:11;;;;;;;3.05;1.63;;;;;;;5.22;95.94;99404.16;4999290;28;20026;-66
2021/10/01 03:29:37;;;;;;;2.65;1.50;;;;;;;5.12;96.14;99397.19;4998821;28;20495;-66
2021/10/01 03:32:03;;;;;;;4.30;1.75;;;;;;;5.05;96.61;99402.31;4997076;28;20038;-66
2021/10/01 03:34:29;;;;;;;4.35;1.80;;;;;;;5.02;96.90;99400.78;4997954;28;20018;-66
2021/10/01 03:36:55;;;;;;;2.05;1.77;;;;;;;5.00;96.48;99396.56;4998531;28;20396;-66
2021/10/01 03:39:22;;;;;;;2.83;2.47;;;;;;;4.93;97.12;99385.63;5016319;28;20076;-66
2021/10/01 03:41:48;;;;;;;4.43;2.58;;;;;;;4.94;96.85;99392.66;5002875;28;20038;-66
2021/10/01 03:44:13;;;;;;;3.03;2.60;;;;;;;4.96;97.02;99390.69;4996663;28;20041;-66
2021/10/01 03:46:38;;;;;;;4.20;2.35;;;;;;;4.96;97.29;99387.16;5002921;28;20048;-66
2021/10/01 03:49:04;;;;;;;4.88;2.17;;;;;;;4.98;97.13;99394.06;5016236;28;20036;-66
2021/10/01 03:51:30;;;;;;;3.58;1.98;;;;;;;4.90;97.29;99385.94;5012674;28;20025;-66
2021/10/01 03:53:56;;;;;;;2.47;1.90;;;;;;;4.93;97.71;99393.66;4995885;28;20407;-66
2021/10/01 03:56:21;;;;;;;3.42;1.83;;;;;;;4.91;97.07;99384.94;4998590;28;20029;-66
2021/10/01 03:58:48;;;;;;;2.08;1.63;;;;;;;4.92;97.54;99383.91;4993523;28;20026;-74
2021/10/01 04:01:14;;;;;;;8.25;2.05;;;;;;;4.94;97.17;99391.81;4990427;28;20026;-75
2021/10/01 04:03:40;;;;;;;3.97;1.73;;;;;;;4.83;96.95;99379.50;5006752;28;20080;-75
2021/10/01 04:06:05;;;;;;;3.17;2.03;;;;;;;4.85;97.73;99388.22;4996206;28;20032;-73
2021/10/01 04:08:32;;;;;;;6.30;1.83;;;;;;;4.80;98.06;99377.13;4995761;28;20026;-75
2021/10/01 04:10:58;;;;;;;3.70;1.95;;;;;;;4.71;98.21;99368.13;4995645;28;20037;-74
2021/10/01 04:13:23;;;;;;;8.55;1.60;;;;;;;4.72;98.12;99366.31;4995686;28;20030;-75
2021/10/01 04:15:48;;;;;;;3.65;1.80;;;;;;;4.76;98.61;99359.63;4996337;28;20037;-75
2021/10/01 04:18:15;;;;;;;4.68;1.88;;;;;;;4.89;99.31;99370.00;4992876;28;20038;-72
2021/10/01 04:20:43;;;;;;;3.83;1.70;;;;;;;4.86;98.99;99368.47;4992239;28;20022;-73
2021/10/01 04:23:08;;;;;;;2.97;2.13;;;;;;;4.77;99.43;99358.66;4983237;28;20041;-74
2021/10/01 04:25:34;;;;;;;3.30;1.63;;;;;;;4.88;99.44;99373.69;4993303;28;20488;-74
2021/10/01 04:27:59;;;;;;;2.88;1.80;;;;;;;4.75;99.44;99345.41;5007060;28;20022;-72
2021/10/01 04:30:24;;;;;;;4.10;1.80;;;;;;;4.94;99.73;99360.50;4998570;28;20018;-76
2021/10/01 04:33:00;;;;;;;4.55;1.90;;;;;;;4.80;100.00;99345.78;5012604;28;20058;-73
2021/10/01 04:35:26;;;;;;;2.22;1.40;;;;;;;4.96;100.00;99361.19;5002965;28;20394;-78
2021/10/01 04:37:51;;;;;;;2.45;1.75;;;;;;;5.08;99.26;99355.56;4996633;28;20038;-77
2021/10/01 04:40:17;;;;;;;4.50;1.70;;;;;;;5.03;98.54;99339.94;4995919;28;20101;-75
2021/10/01 04:42:42;;;;;;;5.78;1.67;;;;;;;5.02;98.45;99357.03;4997285;28;20050;-75
2021/10/01 04:45:08;;;;;;;3.83;2.00;;;;;;;4.83;98.09;99352.69;4990281;28;20050;-76
2021/10/01 04:47:33;;;;;;;4.47;1.85;;;;;;;4.71;98.93;99351.22;4994602;28;20488;-76
2021/10/01 04:49:58;;;;;;;5.97;2.08;;;;;;;4.61;98.98;99354.81;4993208;28;20037;-75
2021/10/01 04:52:24;;;;;;;2.80;1.70;;;;;;;4.65;99.42;99367.91;4994060;28;20030;-75
2021/10/01 04:54:49;;;;;;;5.55;2.08;;;;;;;4.56;99.41;99359.78;4993419;28;20164;-77
2021/10/01 04:57:14;;;;;;;3.97;1.55;;;;;;;4.48;99.40;99359.72;4961253;28;1045531;-75
2021/10/01 04:59:40;;;;;;;4.35;1.80;;;;;;;4.56;100.00;99359.78;4999338;28;20104;-74
2021/10/01 05:02:05;;;;;;;5.90;1.95;;;;;;;4.60;100.00;99365.69;5001323;28;20030;-75
2021/10/01 05:04:30;;;;;;;5.65;1.65;;;;;;;4.49;100.00;99356.03;4994383;28;20099;-74
2021/10/01 05:06:56;;;;;;;4.38;1.70;;;;;;;4.54;100.00;99374.34;4993471;28;20032;-67
2021/10/01 05:09:21;;;;;;;4.72;1.88;;;;;;;4.52;100.00;99366.44;4993309;28;20026;-76
2021/10/01 05:11:46;;;;;;;3.30;1.75;;;;;;;4.52;100.00;99360.25;4993535;28;20109;-76
2021/10/01 05:14:12;;;;;;;4.03;1.42;;;;;;;4.54;100.00;99364.44;4990087;28;20035;-77
2021/10/01 05:16:37;;;;;;;2.58;1.40;;;;;;;4.57;100.00;99364.16;5007614;28;20432;-77
2021/10/01 05:19:02;;;;;;;4.32;1.92;;;;;;;4.57;100.00;99358.78;4993653;28;20096;-74
2021/10/01 05:21:28;;;;;;;8.82;2.20;;;;;;;4.56;100.00;99346.41;4992731;28;20512;-73
2021/10/01 05:23:53;;;;;;;5.55;1.80;;;;;;;4.67;100.00;99356.06;4992511;28;20097;-76
2021/10/01 05:26:18;;;;;;;3.33;1.58;;;;;;;4.75;100.00;99372.22;4992678;28;20036;-66
2021/10/01 05:28:44;;;;;;;3.85;1.90;;;;;;;4.76;100.00;99373.03;4992013;28;20031;-66
2021/10/01 05:31:09;;;;;;;4.55;1.88;;;;;;;4.76;100.00;99373.88;4993112;28;20124;-66
2021/10/01 05:33:34;;;;;;;3.92;1.77;;;;;;;4.64;100.00;99355.50;4993596;28;20081;-66
2021/10/01 05:36:00;;;;;;;7.65;2.65;;;;;;;4.73;98.21;99351.91;4992932;28;20491;-66
2021/10/01 05:38:25;;;;;;;13.60;7.68;;;;;;;4.58;97.21;99347.09;4990723;28;20030;-70
2021/10/01 05:40:51;;;;;;;10.90;6.15;;;;;;;4.74;97.78;99359.81;4992400;28;20449;-66
2021/10/01 05:43:23;;;;;;;9.43;5.38;;;;;;;4.76;96.39;99354.28;4992538;28;20022;-66
2021/10/01 05:45:48;;;;;;;9.35;5.05;;;;;;;4.96;95.63;99361.19;4993014;28;20057;-66
2021/10/01 05:48:14;;;;;;;7.72;4.75;;;;;;;5.14;94.67;99366.53;5006606;28;20065;-66
2021/10/01 05:50:42;;;;;;;5.57;3.40;;;;;;;5.33;93.59;99370.88;4989714;28;20456;-66
2021/10/01 05:53:14;;;;;;;2.85;1.85;;;;;;;5.64;91.32;99355.16;4989732;28;20506;-66
2021/10/01 05:55:41;;;;;;;4.57;2.00;;;;;;;6.21;88.42;99351.09;4993791;28;20030;-66
2021/10/01 05:58:08;;;;;;;6.28;2.20;;;;;;;6.84;84.04;99355.16;4990448;28;20376;-65
2021/10/01 06:00:34;;;;;;;7.22;2.50;;;;;;;7.59;80.18;99355.00;4984064;28;20023;-66
2021/10/01 06:02:59;;;;;;;5.60;2.70;;;;;;;8.32;75.98;99356.63;4987527;28;20025;-66
2021/10/01 06:05:26;;;;;;;4.97;2.40;;;;;;;8.71;73.64;99332.34;4985059;28;20034;-66
2021/10/01 06:07:52;;;;;;;7.18;2.50;;;;;;;9.20;71.49;99333.88;4988158;28;20029;-66
2021/10/01 06:10:17;;;;;;;5.65;2.08;;;;;;;9.73;70.78;99361.72;4986119;28;20031;-66
2021/10/01 06:12:42;;;;;;;3.72;2.30;;;;;;;9.95;69.56;99351.03;4987754;28;20057;-67
2021/10/01 06:15:08;;;;;;;3.60;1.88;;;;;;;9.86;68.91;99347.59;4984431;28;20052;-66
2021/10/01 06:17:34;;;;;;;3.20;1.50;;;;;;;10.33;67.78;99340.97;4985533;28;20041;-66
2021/10/01 06:20:02;;;;;;;2.63;1.10;;;;;;;11.15;64.14;99348.75;4986451;28;20049;-66
2021/10/01 06:22:27;;;;;;;4.80;1.50;;;;;;;12.88;59.25;99341.69;4989944;28;20056;-66
2021/10/01 06:24:52;;;;;;;3.53;1.17;;;;;;;13.88;56.20;99336.34;4985794;28;20030;-66
2021/10/01 06:27:19;;;;;;;2.47;1.17;;;;;;;14.09;53.74;99326.25;4991760;28;20034;-71
2021/10/01 06:29:46;;;;;;;3.60;1.20;;;;;;;13.88;54.47;99330.06;4990490;28;20029;-70
2021/10/01 06:32:11;;;;;;;2.28;1.15;;;;;;;14.63;51.87;99325.88;4991922;28;20630;-74
2021/10/01 06:34:37;;;;;;;3.92;1.20;;;;;;;14.83;52.07;99322.25;4993605;28;20057;-73
2021/10/01 06:37:02;;;;;;;3.10;1.00;;;;;;;15.10;51.95;99312.81;4986900;28;20037;-73
2021/10/01 06:39:28;;;;;;;2.00;1.10;;;;;;;14.73;52.22;99311.81;4989101;28;20551;-74
2021/10/01 06:41:53;;;;;;;4.10;1.00;;;;;;;14.97;52.30;99323.81;4986194;28;20097;-73
2021/10/01 06:44:28;;;;;;;4.03;1.23;;;;;;;15.04;50.97;99308.25;5001426;28;20089;-74
2021/10/01 06:47:20;;;;;;;3.03;1.05;;;;;;;15.12;51.42;99327.06;4982682;28;20035;-73
2021/10/01 08:19:28;;;;;;;4.15;1.02;;;;;;;23.55;35.09;99270.50;5013042;28;20033;-74
2021/10/01 08:21:56;;;;;;;4.32;1.20;;;;;;;23.06;36.25;99250.91;5013504;28;20033;-71
2021/10/01 08:24:22;;;;;;;7.47;1.23;;;;;;;23.17;35.72;99258.91;5012445;28;20392;-71
2021/10/01 08:26:49;;;;;;;2.05;0.90;;;;;;;24.26;34.73;99269.56;5010186;28;20037;-74
2021/10/01 08:29:16;;;;;;;4.38;1.42;;;;;;;23.66;35.46;99265.81;5011304;28;20033;-74
2021/10/01 08:31:42;;;;;;;4.88;1.23;;;;;;;22.35;37.02;99268.03;5009224;28;20037;-75
2021/10/01 08:34:08;;;;;;;3.47;1.42;;;;;;;22.84;36.53;99265.72;5016293;28;20196;-79
2021/10/01 08:36:34;;;;;;;5.72;1.70;;;;;;;23.33;36.07;99259.72;5028639;28;20087;-74
2021/10/01 08:38:59;;;;;;;6.22;1.50;;;;;;;23.29;35.93;99275.22;5012512;28;20030;-73
2021/10/01 08:41:25;;;;;;;4.05;1.70;;;;;;;24.18;35.02;99261.84;5012972;28;20065;-73
2021/10/01 08:43:51;;;;;;;5.53;1.30;;;;;;;25.49;33.48;99249.47;5010803;28;20176;-73
2021/10/01 08:46:17;;;;;;;6.55;1.20;;;;;;;25.01;33.49;99246.50;5007699;28;20034;-73
2021/10/01 08:48:44;;;;;;;1.45;0.73;;;;;;;25.10;33.17;99250.31;5012274;28;20032;-73
2021/10/01 08:51:11;;;;;;;2.95;0.98;;;;;;;25.90;31.73;99253.81;5023515;28;20112;-72
2021/10/01 08:53:37;;;;;;;2.15;0.90;;;;;;;24.52;33.41;99263.94;5013814;28;20026;-71
2021/10/01 08:56:03;;;;;;;4.32;1.02;;;;;;;25.01;33.26;99252.03;5015100;28;20030;-71
2021/10/01 08:58:28;;;;;;;1.75;0.90;;;;;;;25.30;32.32;99259.59;5000163;28;20098;-71
2021/10/01 09:00:56;;;;;;;4.85;1.40;;;;;;;25.53;31.76;99236.69;5018510;28;20483;-71
2021/10/01 09:03:22;;;;;;;3.58;1.20;;;;;;;24.49;34.22;99250.66;5010624;28;20379;-71
2021/10/01 09:05:47;;;;;;;1.63;1.00;;;;;;;24.84;33.16;99230.28;5014418;28;20132;-72
2021/10/01 09:08:16;;;;;;;5.22;1.20;;;;;;;25.64;32.20;99236.59;5013678;28;20030;-68
2021/10/01 09:10:41;;;;;;;2.97;0.93;;;;;;;25.82;33.33;99227.53;5011226;28;20513;-69
2021/10/01 09:13:09;;;;;;;2.45;1.20;;;;;;;25.93;31.80;99226.31;5013046;28;20058;-69
2021/10/01 09:15:42;;;;;;;2.03;1.00;;;;;;;27.37;29.58;99214.06;5028980;28;20438;-68
2021/10/01 09:18:08;;;;;;;5.80;1.30;;;;;;;26.40;31.77;99216.31;5006288;28;20034;-68
2021/10/01 09:20:34;;;;;;;8.25;1.27;;;;;;;28.95;28.30;99215.63;5010260;28;20026;-68
2021/10/01 09:23:17;;;;;;;3.90;1.17;;;;;;;29.08;27.70;99210.31;5007589;28;20032;-68
2021/10/01 09:25:44;;;;;;;6.00;1.00;;;;;;;29.01;28.34;99211.56;5007524;28;20487;-68
2021/10/01 09:28:13;;;;;;;1.88;0.90;;;;;;;29.36;26.83;99209.03;5009090;28;20049;-68
2021/10/01 09:30:48;;;;;;;4.22;0.93;;;;;;;29.58;26.97;99196.22;5009130;28;20049;-68
2021/10/01 09:33:15;;;;;;;3.28;1.20;;;;;;;28.72;27.73;99200.84;5012558;28;20021;-68
2021/10/01 09:35:43;;;;;;;3.78;1.88;;;;;;;26.73;30.52;99194.25;5011499;28;20052;-68
2021/10/01 09:38:18;;;;;;;2.13;1.03;;;;;;;27.22;29.78;99194.88;5011711;28;20758;-69
2021/10/01 09:41:04;;;;;;;2.53;1.00;;;;;;;26.41;30.96;99184.69;5011475;28;20276;-68
2021/10/01 09:43:31;;;;;;;4.60;1.25;;;;;;;27.95;29.86;99171.03;4993665;28;20085;-68
2021/10/01 09:46:14;;;;;;;3.13;1.13;;;;;;;28.76;28.30;99173.16;5003332;28;20100;-68
2021/10/01 09:48:40;;;;;;;3.90;0.93;;;;;;;27.73;29.01;99166.97;5022707;28;20499;-68
2021/10/01 09:51:10;;;;;;;5.40;1.23;;;;;;;28.39;28.63;99158.41;5012195;28;20033;-68
2021/10/01 09:53:48;;;;;;;4.38;0.90;;;;;;;28.59;28.57;99151.59;5008199;28;20038;-68
2021/10/01 09:56:30;;;;;;;2.47;0.85;;;;;;;29.59;27.23;99147.69;5009297;28;20038;-68
2021/10/01 09:59:19;;;;;;;2.08;0.80;;;;;;;29.23;26.90;99143.06;5011220;28;20475;-68
2021/10/01 10:02:04;;;;;;;2.88;0.77;;;;;;;29.51;26.67;99140.94;5011256;28;20120;-69
2021/10/01 10:04:34;;;;;;;4.85;0.95;;;;;;;29.52;26.37;99138.94;5012457;28;20026;-69
2021/10/01 10:07:11;;;;;;;3.53;0.77;;;;;;;30.50;25.81;99119.09;5010906;28;20112;-69
2021/10/01 10:09:42;;;;;;;2.17;0.60;;;;;;;28.88;27.54;99126.09;5011222;28;20775;-68
2021/10/01 10:12:12;;;;;;;2.53;0.88;;;;;;;29.70;27.17;99118.38;5027946;28;20426;-69
2021/10/01 10:14:43;;;;;;;2.28;0.77;;;;;;;30.82;25.39;99107.75;5018516;28;20037;-69
2021/10/01 10:17:13;;;;;;;2.17;0.70;;;;;;;30.77;25.16;99112.31;5019624;28;20022;-69
2021/10/01 10:19:39;;;;;;;4.45;0.73;;;;;;;30.16;26.88;99108.69;5022591;28;20549;-69
2021/10/01 10:22:04;;;;;;;3.25;0.75;;;;;;;30.31;26.46;99102.66;5021523;28;20026;-69
2021/10/01 10:24:30;;;;;;;2.92;0.80;;;;;;;30.45;25.75;99105.28;5024258;28;20032;-68
2021/10/01 10:26:57;;;;;;;1.92;0.60;;;;;;;30.76;25.70;99096.72;5025106;28;20033;-70
2021/10/01 10:29:23;;;;;;;2.70;0.70;;;;;;;31.57;24.48;99097.03;5027646;28;20014;-69
2021/10/01 10:31:50;;;;;;;2.22;0.60;;;;;;;31.80;24.15;99097.59;5027852;28;20136;-69
2021/10/01 10:34:25;;;;;;;2.78;0.70;;;;;;;29.67;25.90;99097.56;5025275;28;20060;-69
2021/10/01 10:37:09;;;;;;;1.83;0.60;;;;;;;29.15;26.60;99094.50;5018959;28;20510;-70
2021/10/01 10:39:38;;;;;;;3.80;0.80;;;;;;;29.66;26.53;99095.91;5012224;28;20034;-70
2021/10/01 10:42:05;;;;;;;1.88;0.80;;;;;;;30.02;25.48;99094.84;5013637;28;20022;-68
2021/10/01 10:44:46;;;;;;;3.15;0.75;;;;;;;29.72;26.37;99088.22;5013348;28;20052;-70
2021/10/01 10:47:40;;;;;;;2.35;0.90;;;;;;;30.81;25.34;99078.97;5012711;28;20030;-67
2021/10/01 10:53:03;;;;;;;3.17;0.60;;;;;;;32.28;23.82;99066.34;5009588;28;20040;-70
2021/10/01 10:55:30;;;;;;;2.22;0.52;;;;;;;32.08;23.34;99061.56;5013043;28;20045;-70
2021/10/01 10:57:55;;;;;;;7.43;0.70;;;;;;;30.36;24.78;99066.19;5011927;28;20025;-71
2021/10/01 11:00:35;;;;;;;2.78;0.95;;;;;;;30.34;24.81;99071.28;5012546;28;20080;-70
2021/10/01 11:03:20;;;;;;;2.70;0.60;;;;;;;31.06;24.29;99066.13;5012503;28;20026;-72
2021/10/01 11:06:07;;;;;;;1.13;0.52;;;;;;;28.75;26.52;99076.88;4993582;28;20056;-71
2021/10/01 11:08:33;;;;;;;1.52;0.50;;;;;;;29.51;25.99;99076.00;5011862;28;20040;-71
2021/10/01 11:10:58;;;;;;;1.42;0.65;;;;;;;29.91;25.57;99052.47;5013359;28;20387;-69
2021/10/01 11:13:26;;;;;;;2.55;0.70;;;;;;;30.32;25.24;99053.22;5013146;28;20029;-71
2021/10/01 11:16:11;;;;;;;2.10;0.40;;;;;;;30.83;24.50;99053.53;5011766;28;20029;-70
2021/10/01 11:18:43;;;;;;;1.90;0.60;;;;;;;29.21;25.64;99062.59;5011883;28;20120;-69
2021/10/01 11:21:27;;;;;;;5.35;0.90;;;;;;;28.50;26.56;99056.84;5007325;28;20033;-70
2021/10/01 11:24:19;;;;;;;1.38;0.60;;;;;;;28.52;26.74;99050.97;5010438;28;20026;-69
2021/10/01 11:26:47;;;;;;;2.65;0.90;;;;;;;28.75;26.30;99043.44;5010644;28;20466;-71
2021/10/01 11:29:38;;;;;;;2.78;0.70;;;;;;;28.70;26.43;99040.78;5011610;28;20026;-69
2021/10/01 11:32:17;;;;;;;1.15;0.60;;;;;;;28.78;26.27;99029.69;5010490;28;20041;-69
2021/10/01 11:34:45;;;;;;;1.75;0.57;;;;;;;28.58;26.02;99024.66;5027221;28;20057;-69
2021/10/01 11:37:28;;;;;;;5.20;0.80;;;;;;;29.66;25.52;99022.59;5011708;28;20052;-69
2021/10/01 11:39:57;;;;;;;1.60;0.50;;;;;;;29.20;25.76;99018.31;4998092;28;20334;-71
2021/10/01 11:42:25;;;;;;;1.85;0.77;;;;;;;29.87;25.23;99020.81;5010891;28;20472;-70
2021/10/01 11:44:51;;;;;;;2.55;0.95;;;;;;;29.81;25.17;99002.59;5013301;28;20537;-71
2021/10/01 11:47:17;;;;;;;1.45;0.60;;;;;;;29.46;25.75;99010.03;4995595;28;20030;-70
2021/10/01 11:49:50;;;;;;;4.45;0.88;;;;;;;29.93;24.51;98993.59;4993758;28;20022;-71
2021/10/01 11:52:17;;;;;;;2.80;0.63;;;;;;;29.42;24.60;98986.72;4993022;28;20077;-72
2021/10/01 11:55:09;;;;;;;3.75;0.77;;;;;;;30.69;24.20;98995.84;5005765;28;20060;-71
2021/10/01 11:57:41;;;;;;;3.22;0.70;;;;;;;31.16;23.25;98973.53;4992032;28;20050;-71
2021/10/01 12:00:09;;;;;;;1.33;0.50;;;;;;;31.82;22.25;98972.97;5004555;28;20494;-71
2021/10/01 12:02:36;;;;;;;1.55;0.57;;;;;;;31.77;21.83;98981.56;5020416;28;20022;-72
2021/10/01 12:05:28;;;;;;;2.67;0.60;;;;;;;31.13;22.74;98973.38;5012831;28;20379;-70
2021/10/01 12:07:56;;;;;;;1.75;0.75;;;;;;;30.84;23.35;98971.34;5012725;28;20014;-70
2021/10/01 12:10:23;;;;;;;2.73;0.60;;;;;;;30.79;23.65;98964.78;5010542;28;20130;-69
2021/10/01 12:13:28;;;;;;;2.97;0.60;;;;;;;30.23;25.30;98955.50;5012787;28;20179;-70
2021/10/01 12:15:57;;;;;;;2.85;0.73;;;;;;;30.56;24.69;98954.97;4992062;28;20049;-72
2021/10/01 12:18:44;;;;;;;1.98;0.75;;;;;;;30.95;22.31;98948.31;5012132;28;20560;-72
2021/10/01 12:21:19;;;;;;;1.05;0.50;;;;;;;30.51;23.23;98944.81;5012608;28;20523;-72
2021/10/01 12:24:11;;;;;;;1.90;0.47;;;;;;;31.25;21.85;98941.91;5011589;28;20033;-72
2021/10/01 12:26:39;;;;;;;2.78;0.70;;;;;;;30.05;23.46;98935.16;5009560;28;20069;-71
2021/10/01 12:29:16;;;;;;;1.23;0.60;;;;;;;29.43;24.02;98943.78;5011448;28;20026;-72
2021/10/01 12:32:00;;;;;;;2.03;0.70;;;;;;;29.72;23.23;98936.81;5010615;28;20042;-71
2021/10/01 12:34:35;;;;;;;0.90;0.50;;;;;;;30.53;22.56;98924.94;5012091;28;20040;-72
2021/10/01 12:37:04;;;;;;;1.27;0.57;;;;;;;30.94;22.51;98923.47;5011993;28;20080;-72
2021/10/01 12:39:31;;;;;;;1.70;0.80;;;;;;;30.75;23.26;98924.69;5012005;28;20112;-71
2021/10/01 12:42:06;;;;;;;1.15;0.60;;;;;;;32.01;21.27;98922.16;5012363;28;20026;-73
2021/10/01 12:44:37;;;;;;;1.20;0.57;;;;;;;31.63;21.82;98931.50;5011213;28;20026;-71
2021/10/01 12:47:34;;;;;;;4.28;0.60;;;;;;;31.41;21.66;98918.66;5001320;28;20030;-72
2021/10/01 12:50:02;;;;;;;3.35;0.80;;;;;;;29.46;23.48;98915.25;4987807;28;20492;-70
2021/10/01 12:52:29;;;;;;;3.80;0.82;;;;;;;30.67;22.68;98905.16;5000545;28;20125;-70
2021/10/01 12:55:00;;;;;;;1.35;0.50;;;;;;;30.20;22.64;98919.88;5007682;28;20037;-69
2021/10/01 12:57:33;;;;;;;2.05;0.75;;;;;;;31.40;21.20;98905.00;5006884;28;20028;-69
2021/10/01 13:00:08;;;;;;;2.10;0.60;;;;;;;30.61;23.24;98890.56;4989406;28;20041;-69
2021/10/01 13:02:33;;;;;;;3.13;0.70;;;;;;;31.80;21.63;98904.53;5006348;28;20613;-69
2021/10/01 13:05:02;;;;;;;1.53;0.70;;;;;;;30.91;22.81;98901.81;5008150;28;20034;-69
2021/10/01 13:07:45;;;;;;;3.60;0.68;;;;;;;31.17;22.38;98891.31;5008844;28;20113;-68
2021/10/01 13:10:26;;;;;;;1.17;0.70;;;;;;;30.44;23.35;98888.66;4995316;28;20030;-69
2021/10/01 13:12:56;;;;;;;2.95;0.80;;;;;;;29.87;23.73;98883.34;5007402;28;20166;-69
2021/10/01 13:15:39;;;;;;;2.95;0.52;;;;;;;30.28;24.26;98877.19;5007362;28;20040;-69
2021/10/01 13:18:13;;;;;;;1.92;0.70;;;;;;;31.21;24.21;98869.91;5003361;28;20056;-70
2021/10/01 13:20:42;;;;;;;3.78;0.80;;;;;;;31.46;22.55;98867.28;5006155;28;20112;-69